createdAt,value
2022-09-22T00:00:59.833Z,7.70
2022-09-22T00:04:48.095Z,5.90
2022-09-22T00:08:35.796Z,7.40
2022-09-22T00:12:23.923Z,9.20
2022-09-22T00:16:11.713Z,9.50
2022-09-22T00:20:05.305Z,9.20
2022-09-22T00:23:52.790Z,7.00
2022-09-22T00:27:40.408Z,12.60
2022-09-22T00:31:28.632Z,9.90
2022-09-22T00:35:16.214Z,8.00
2022-09-22T00:39:04.042Z,7.00
2022-09-22T00:42:51.541Z,8.40
2022-09-22T00:46:43.237Z,7.10
2022-09-22T00:50:36.325Z,10.50
2022-09-22T00:54:23.930Z,8.10
2022-09-22T00:58:11.996Z,8.80
2022-09-22T01:01:59.309Z,9.20
2022-09-22T01:05:46.917Z,7.10
2022-09-22T01:09:34.553Z,7.70
2022-09-22T01:13:22.272Z,7.90
2022-09-22T01:17:17.191Z,5.70
2022-09-22T01:21:01.626Z,9.10
2022-09-22T01:25:02.718Z,8.60
2022-09-22T01:28:54.505Z,9.60
2022-09-22T01:32:51.047Z,9.40
2022-09-22T01:36:44.428Z,6.00
2022-09-22T01:40:31.755Z,7.80
2022-09-22T01:44:31.460Z,6.70
2022-09-22T01:48:24.969Z,7.50
2022-09-22T01:52:15.249Z,11.00
2022-09-22T01:56:05.785Z,8.20
2022-09-22T01:59:53.795Z,8.20
2022-09-22T02:03:44.664Z,9.50
2022-09-22T02:07:32.691Z,7.50
2022-09-22T02:11:20.716Z,6.50
2022-09-22T02:15:08.676Z,7.90
2022-09-22T02:19:10.357Z,9.00
2022-09-22T02:22:59.672Z,6.30
2022-09-22T02:26:46.915Z,7.20
2022-09-22T02:30:50.610Z,4.50
2022-09-22T02:34:50.993Z,12.70
2022-09-22T02:38:50.494Z,7.90
2022-09-22T02:42:38.365Z,12.50
2022-09-22T02:46:35.371Z,6.50
2022-09-22T02:50:23.240Z,9.90
2022-09-22T02:54:13.708Z,11.40
2022-09-22T02:58:01.406Z,10.50
2022-09-22T03:01:50.201Z,7.70
2022-09-22T03:05:37.660Z,7.20
2022-09-22T03:09:25.689Z,9.10
2022-09-22T03:13:17.558Z,10.30
2022-09-22T03:17:05.387Z,8.70
2022-09-22T03:20:52.759Z,7.40
2022-09-22T03:24:41.365Z,5.90
2022-09-22T03:28:29.015Z,6.10
2022-09-22T03:32:16.652Z,9.60
2022-09-22T03:36:04.513Z,9.30
2022-09-22T03:39:52.318Z,10.50
2022-09-22T03:43:40.277Z,6.50
2022-09-22T03:47:20.298Z,11.30
2022-09-22T03:51:07.477Z,8.90
2022-09-22T03:54:47.665Z,7.80
2022-09-22T03:58:35.215Z,6.80
2022-09-22T04:02:21.547Z,7.20
2022-09-22T04:05:34.537Z,7.60
2022-09-22T04:09:14.310Z,8.20
2022-09-22T04:12:32.044Z,9.10
2022-09-22T04:15:43.553Z,7.70
2022-09-22T04:19:31.097Z,12.40
2022-09-22T04:23:14.784Z,9.70
2022-09-22T04:30:50.647Z,8.80
2022-09-22T04:34:18.998Z,10.10
2022-09-22T04:37:57.123Z,12.30
2022-09-22T04:41:35.834Z,8.80
2022-09-22T04:45:03.371Z,11.50
2022-09-22T04:48:23.305Z,13.80
2022-09-22T04:51:40.936Z,10.30
2022-09-22T04:55:00.349Z,10.00
2022-09-22T04:58:43.396Z,12.40
2022-09-22T05:02:31.641Z,13.40
2022-09-22T05:05:42.127Z,11.50
2022-09-22T05:09:09.725Z,14.00
2022-09-22T05:12:57.155Z,13.70
2022-09-22T05:16:32.165Z,10.00
2022-09-22T05:20:19.721Z,9.10
2022-09-22T05:24:07.232Z,10.10
2022-09-22T05:27:52.103Z,12.00
2022-09-22T05:31:39.565Z,10.90
2022-09-22T05:35:06.795Z,9.50
2022-09-22T05:38:46.568Z,8.50
2022-09-22T05:42:34.084Z,6.10
2022-09-22T05:45:57.808Z,12.10
2022-09-22T05:49:45.415Z,9.70
2022-09-22T05:53:24.007Z,6.50
2022-09-22T05:57:11.434Z,9.80
2022-09-22T06:00:23.873Z,9.00
2022-09-22T06:04:11.357Z,13.10
2022-09-22T06:07:50.001Z,11.20
2022-09-22T06:11:11.091Z,12.70
2022-09-22T06:14:58.547Z,9.00
2022-09-22T06:18:33.096Z,8.20
2022-09-22T06:22:03.616Z,10.00
2022-09-22T06:25:51.418Z,11.00
2022-09-22T06:29:39.199Z,9.30
2022-09-22T06:33:17.777Z,8.70
2022-09-22T06:36:47.850Z,6.60
2022-09-22T06:40:34.679Z,5.40
2022-09-22T06:44:15.754Z,8.70
2022-09-22T06:48:07.528Z,8.70
2022-09-22T06:51:37.865Z,10.90
2022-09-22T06:55:25.455Z,7.90
2022-09-22T06:59:10.215Z,11.60
2022-09-22T07:02:50.511Z,7.90
2022-09-22T07:06:37.888Z,8.50
2022-09-22T07:10:17.159Z,7.00
2022-09-22T07:14:05.116Z,6.40
2022-09-22T07:17:46.380Z,3.20
2022-09-22T07:21:34.295Z,3.60
2022-09-22T07:25:21.796Z,7.70
2022-09-22T07:29:09.647Z,5.60
2022-09-22T07:32:57.872Z,5.70
2022-09-22T07:36:53.517Z,4.60
2022-09-22T07:40:41.335Z,3.60
2022-09-22T07:44:27.676Z,4.10
2022-09-22T07:48:13.888Z,5.10
2022-09-22T07:52:01.852Z,2.60
2022-09-22T07:55:49.719Z,3.80
2022-09-22T07:59:29.469Z,3.20
2022-09-22T08:02:57.664Z,3.80
2022-09-22T08:06:38.459Z,3.40
2022-09-22T08:10:26.166Z,1.90
2022-09-22T08:14:13.615Z,4.30
2022-09-22T08:18:01.150Z,2.70
2022-09-22T08:21:47.684Z,4.40
2022-09-22T08:25:19.129Z,3.70
2022-09-22T08:28:49.892Z,4.10
2022-09-22T08:32:28.132Z,3.80
2022-09-22T08:36:16.264Z,2.70
2022-09-22T08:40:04.657Z,1.80
2022-09-22T08:43:45.564Z,2.50
2022-09-22T08:47:34.191Z,2.20
2022-09-22T08:51:26.630Z,2.90
2022-09-22T08:55:05.801Z,2.40
2022-09-22T08:59:11.582Z,2.60
2022-09-22T09:03:00.961Z,1.40
2022-09-22T09:07:00.901Z,2.20
2022-09-22T09:10:51.518Z,7.70
2022-09-22T09:14:54.229Z,2.50
2022-09-22T09:18:42.824Z,3.00
2022-09-22T09:22:31.664Z,1.20
2022-09-22T09:26:21.179Z,2.40
2022-09-22T09:29:59.838Z,1.20
2022-09-22T09:33:56.571Z,2.70
2022-09-22T09:37:46.933Z,1.10
2022-09-22T09:41:24.795Z,2.30
2022-09-22T09:45:15.645Z,1.30
2022-09-22T09:49:11.904Z,4.30
2022-09-22T09:52:52.281Z,1.70
2022-09-22T09:56:23.237Z,1.10
2022-09-22T10:00:09.132Z,3.40
2022-09-22T10:04:09.346Z,4.10
2022-09-22T10:07:48.690Z,1.70
2022-09-22T10:11:37.153Z,2.80
2022-09-22T10:15:18.298Z,2.50
2022-09-22T10:19:24.725Z,2.60
2022-09-22T10:23:21.730Z,2.50
2022-09-22T10:27:05.284Z,2.50
2022-09-22T10:31:08.172Z,0.70
2022-09-22T10:35:05.040Z,1.00
2022-09-22T10:38:53.310Z,1.80
2022-09-22T10:42:43.867Z,2.20
2022-09-22T10:46:48.654Z,2.30
2022-09-22T10:50:37.736Z,0.80
2022-09-22T10:54:55.564Z,3.30
2022-09-22T10:59:07.632Z,2.40
2022-09-22T11:03:19.743Z,2.30
2022-09-22T11:07:11.714Z,2.70
2022-09-22T11:11:10.134Z,1.30
2022-09-22T11:15:02.568Z,0.40
2022-09-22T11:18:47.330Z,2.00
2022-09-22T11:22:42.792Z,1.90
2022-09-22T11:26:28.846Z,0.40
2022-09-22T11:30:34.776Z,1.40
2022-09-22T11:34:19.410Z,1.00
2022-09-22T11:38:08.657Z,1.20
2022-09-22T11:42:02.145Z,3.00
2022-09-22T11:45:57.327Z,0.50
2022-09-22T11:49:51.160Z,0.30
2022-09-22T11:53:53.426Z,0.70
2022-09-22T11:57:42.752Z,4.00
2022-09-22T12:01:29.054Z,3.90
2022-09-22T12:05:20.691Z,1.90
2022-09-22T12:08:57.116Z,1.20
2022-09-22T12:12:48.182Z,1.80
2022-09-22T12:16:49.715Z,0.90
2022-09-22T12:20:40.964Z,3.40
2022-09-22T12:24:33.155Z,4.20
2022-09-22T12:28:25.387Z,3.00
2022-09-22T12:32:08.553Z,0.60
2022-09-22T12:35:58.610Z,1.30
2022-09-22T12:39:55.596Z,0.90
2022-09-22T12:43:43.637Z,0.40
2022-09-22T12:47:33.762Z,0.90
2022-09-22T12:51:10.669Z,1.80
2022-09-22T12:55:03.329Z,1.90
2022-09-22T12:58:52.599Z,5.30
2022-09-22T13:02:51.300Z,2.20
2022-09-22T13:06:23.474Z,0.40
2022-09-22T13:10:11.323Z,1.10
2022-09-22T13:14:02.524Z,3.90
2022-09-22T13:17:49.071Z,0.40
2022-09-22T13:21:31.250Z,0.70
2022-09-22T13:25:19.805Z,0.80
2022-09-22T13:29:05.451Z,0.30
2022-09-22T13:32:58.013Z,1.10
2022-09-22T13:36:44.054Z,0.60
2022-09-22T13:40:31.342Z,0.80
2022-09-22T13:44:31.795Z,2.60
2022-09-22T13:48:19.209Z,3.00
2022-09-22T13:52:08.328Z,0.80
2022-09-22T13:56:01.778Z,0.80
2022-09-22T13:59:54.877Z,0.70
2022-09-22T14:03:45.741Z,0.90
2022-09-22T14:07:38.359Z,0.90
2022-09-22T14:11:29.292Z,1.00
2022-09-22T14:15:22.947Z,0.80
2022-09-22T14:19:16.980Z,1.00
2022-09-22T14:23:05.045Z,2.00
2022-09-22T14:27:03.021Z,1.20
2022-09-22T14:30:55.676Z,2.30
2022-09-22T14:34:43.984Z,1.00
2022-09-22T14:38:32.985Z,2.10
2022-09-22T14:42:30.198Z,2.60
2022-09-22T14:46:17.950Z,2.30
2022-09-22T14:50:13.310Z,0.60
2022-09-22T14:54:04.342Z,0.60
2022-09-22T14:57:52.074Z,1.30
2022-09-22T15:01:38.534Z,1.00
2022-09-22T15:05:29.694Z,3.00
2022-09-22T15:09:19.417Z,0.80
2022-09-22T15:13:11.674Z,3.80
2022-09-22T15:17:11.651Z,2.70
2022-09-22T15:21:00.250Z,2.60
2022-09-22T15:24:48.757Z,3.70
2022-09-22T15:28:36.421Z,4.40
2022-09-22T15:32:24.553Z,2.70
2022-09-22T15:36:13.716Z,3.90
2022-09-22T15:40:09.349Z,4.40
2022-09-22T15:43:57.969Z,2.50
2022-09-22T15:47:46.469Z,6.70
2022-09-22T15:51:34.517Z,2.90
2022-09-22T15:55:22.370Z,4.60
2022-09-22T15:59:16.690Z,5.90
2022-09-22T16:03:05.386Z,5.60
2022-09-22T16:06:53.589Z,7.30
2022-09-22T16:10:42.099Z,7.30
2022-09-22T16:14:30.538Z,4.50
2022-09-22T16:18:18.817Z,3.80
2022-09-22T16:22:09.856Z,3.10
2022-09-22T16:25:58.252Z,2.50
2022-09-22T16:29:46.168Z,2.60
2022-09-22T16:33:35.044Z,23.20
2022-09-22T16:37:24.228Z,19.20
2022-09-22T16:41:12.778Z,21.60
2022-09-22T16:45:02.241Z,14.60
2022-09-22T16:48:50.381Z,13.30
2022-09-22T16:52:39.228Z,12.40
2022-09-22T16:56:27.240Z,38.80
2022-09-22T17:00:15.612Z,20.90
2022-09-22T17:04:04.115Z,8.20
2022-09-22T17:07:51.986Z,5.80
2022-09-22T17:11:39.747Z,8.40
2022-09-22T17:15:27.802Z,11.20
2022-09-22T17:19:15.679Z,10.40
2022-09-22T17:23:03.264Z,9.10
2022-09-22T17:26:51.319Z,14.50
2022-09-22T17:30:39.009Z,17.50
2022-09-22T17:34:27.186Z,10.60
2022-09-22T17:38:16.551Z,25.60
2022-09-22T17:42:10.146Z,12.20
2022-09-22T17:45:58.318Z,14.10
2022-09-22T17:49:44.541Z,17.10
2022-09-22T17:53:32.827Z,46.60
2022-09-22T17:57:21.202Z,20.80
2022-09-22T18:01:09.243Z,15.80
2022-09-22T18:04:57.928Z,14.40
2022-09-22T18:08:47.002Z,20.40
2022-09-22T18:12:35.601Z,21.10
2022-09-22T18:16:26.815Z,25.00
2022-09-22T18:20:15.168Z,19.40
2022-09-22T18:24:05.190Z,21.20
2022-09-22T18:27:54.438Z,26.20
2022-09-22T18:31:42.924Z,36.00
2022-09-22T18:35:31.218Z,37.40
